createdAt,value
2023-02-24T00:01:14.063Z,20.97
2023-02-24T00:06:16.572Z,24.30
2023-02-24T00:11:19.687Z,19.23
2023-02-24T00:16:23.904Z,18.47
2023-02-24T00:21:26.680Z,17.77
2023-02-24T00:26:30.265Z,19.53
2023-02-24T00:31:33.282Z,24.83
2023-02-24T00:36:35.872Z,25.17
2023-02-24T00:41:41.824Z,19.97
2023-02-24T00:46:47.289Z,17.10
2023-02-24T00:51:50.069Z,17.80
2023-02-24T00:56:52.579Z,17.37
2023-02-24T01:01:55.595Z,16.70
2023-02-24T01:07:01.695Z,16.70
2023-02-24T01:12:26.081Z,18.20
2023-02-24T01:17:28.730Z,15.40
2023-02-24T01:22:31.553Z,16.30
2023-02-24T01:27:37.138Z,16.07
2023-02-24T01:32:40.945Z,16.13
2023-02-24T01:37:43.567Z,16.23
2023-02-24T01:42:47.717Z,14.07
2023-02-24T01:47:52.518Z,13.57
2023-02-24T01:53:02.448Z,13.00
2023-02-24T01:58:11.666Z,13.50
2023-02-24T02:03:27.073Z,14.83
2023-02-24T02:08:30.074Z,14.70
2023-02-24T02:13:35.964Z,15.17
2023-02-24T02:18:46.460Z,14.40
2023-02-24T02:23:59.072Z,13.27
2023-02-24T02:29:31.802Z,11.70
2023-02-24T02:34:53.786Z,13.87
2023-02-24T02:40:07.782Z,11.07
2023-02-24T02:45:29.202Z,14.07
2023-02-24T02:51:04.329Z,14.37
2023-02-24T02:56:12.953Z,10.03
2023-02-24T03:01:21.142Z,12.03
2023-02-24T03:06:26.272Z,12.77
2023-02-24T03:11:32.546Z,12.37
2023-02-24T03:16:36.061Z,10.50
2023-02-24T03:21:45.900Z,13.40
2023-02-24T03:27:06.916Z,13.30
2023-02-24T03:32:23.174Z,11.70
2023-02-24T03:37:29.988Z,12.57
2023-02-24T03:42:35.238Z,13.13
2023-02-24T03:47:39.096Z,12.47
2023-02-24T03:52:49.018Z,12.50
2023-02-24T03:58:17.088Z,12.97
2023-02-24T04:03:36.746Z,12.03
2023-02-24T04:09:33.349Z,12.67
2023-02-24T04:14:53.514Z,12.63
2023-02-24T04:20:01.419Z,13.30
2023-02-24T04:25:13.697Z,11.87
2023-02-24T04:30:19.973Z,10.87
2023-02-24T04:35:23.068Z,12.23
2023-02-24T04:40:26.827Z,9.53
2023-02-24T04:45:31.826Z,11.07
2023-02-24T04:50:36.851Z,11.23
2023-02-24T04:55:42.395Z,12.30
2023-02-24T05:00:48.498Z,10.07
2023-02-24T05:05:57.688Z,10.73
2023-02-24T05:11:04.067Z,11.70
2023-02-24T05:16:09.000Z,10.10
2023-02-24T05:21:32.977Z,13.37
2023-02-24T05:26:38.118Z,9.60
2023-02-24T05:31:40.743Z,9.57
2023-02-24T05:36:45.898Z,9.90
2023-02-24T05:41:49.723Z,8.57
2023-02-24T05:47:00.868Z,9.40
2023-02-24T05:52:09.977Z,9.13
2023-02-24T05:57:17.380Z,10.57
2023-02-24T06:02:27.809Z,9.13
2023-02-24T06:07:34.579Z,9.37
2023-02-24T06:12:40.082Z,3.10
2023-02-24T06:17:43.639Z,9.53
2023-02-24T06:22:46.089Z,7.53
2023-02-24T06:27:53.351Z,9.03
2023-02-24T06:32:57.163Z,9.50
2023-02-24T06:38:00.112Z,8.00
2023-02-24T06:43:02.858Z,8.87
2023-02-24T06:48:05.608Z,8.60
2023-02-24T06:53:16.932Z,6.07
2023-02-24T06:58:20.349Z,4.37
2023-02-24T07:03:25.909Z,7.27
2023-02-24T07:08:28.457Z,3.47
2023-02-24T07:13:31.033Z,4.30
2023-02-24T07:18:41.760Z,5.83
2023-02-24T07:23:45.656Z,4.60
2023-02-24T07:28:48.321Z,4.33
2023-02-24T07:33:55.679Z,4.07
2023-02-24T07:38:59.544Z,2.80
2023-02-24T07:44:03.458Z,3.73
2023-02-24T07:49:09.626Z,2.77
2023-02-24T07:54:13.043Z,1.90
2023-02-24T07:59:17.956Z,2.80
2023-02-24T08:04:23.688Z,3.27
2023-02-24T08:09:44.581Z,2.93
2023-02-24T08:14:53.461Z,2.60
2023-02-24T08:20:22.023Z,2.37
2023-02-24T08:25:35.968Z,4.07
2023-02-24T08:30:45.383Z,4.10
2023-02-24T08:36:01.251Z,3.97
2023-02-24T08:41:05.057Z,3.93
2023-02-24T08:46:13.498Z,3.53
2023-02-24T08:51:29.015Z,3.27
2023-02-24T08:56:35.879Z,3.07
2023-02-24T09:01:40.359Z,3.13
2023-02-24T09:06:44.416Z,3.27
2023-02-24T09:11:58.765Z,2.17
2023-02-24T09:17:05.713Z,2.83
2023-02-24T09:22:31.482Z,2.37
2023-02-24T09:27:34.161Z,2.57
2023-02-24T09:32:36.965Z,2.83
2023-02-24T09:37:41.408Z,2.70
2023-02-24T09:42:47.903Z,2.40
2023-02-24T09:47:56.996Z,2.97
2023-02-24T09:53:19.498Z,2.87
2023-02-24T09:58:48.659Z,1.70
2023-02-24T10:04:19.536Z,1.37
2023-02-24T10:09:44.050Z,2.97
2023-02-24T10:15:16.652Z,2.00
2023-02-24T10:20:39.697Z,2.77
2023-02-24T10:25:54.555Z,1.73
2023-02-24T10:31:10.495Z,2.10
2023-02-24T10:36:18.518Z,2.67
2023-02-24T10:41:28.765Z,2.00
2023-02-24T10:46:41.545Z,2.43
2023-02-24T10:51:53.397Z,1.93
2023-02-24T10:57:07.597Z,1.70
2023-02-24T11:02:29.703Z,1.20
2023-02-24T11:07:53.568Z,1.97
2023-02-24T11:13:16.049Z,2.20
2023-02-24T11:18:23.587Z,2.17
2023-02-24T11:23:47.669Z,2.60
2023-02-24T11:28:56.001Z,2.10
2023-02-24T11:34:04.753Z,2.87
2023-02-24T11:39:18.913Z,2.70
2023-02-24T11:44:36.227Z,2.30
2023-02-24T11:49:52.676Z,1.77
2023-02-24T11:54:58.184Z,2.13
2023-02-24T12:00:16.638Z,2.60
2023-02-24T12:05:24.688Z,2.77
2023-02-24T12:10:45.042Z,1.40
2023-02-24T12:16:13.178Z,2.07
2023-02-24T12:21:22.517Z,2.03
2023-02-24T12:26:55.879Z,3.03
2023-02-24T12:32:34.699Z,2.23
2023-02-24T12:37:55.906Z,1.73
2023-02-24T12:43:26.889Z,2.13
2023-02-24T12:48:47.973Z,2.53
2023-02-24T12:54:16.646Z,2.60
2023-02-24T12:59:25.721Z,1.93
2023-02-24T13:04:40.008Z,2.50
2023-02-24T13:09:51.103Z,2.43
2023-02-24T13:14:54.058Z,2.40
2023-02-24T13:19:56.973Z,1.83
2023-02-24T13:25:08.393Z,2.40
2023-02-24T13:30:20.055Z,2.07
2023-02-24T13:35:22.643Z,2.33
2023-02-24T13:40:29.250Z,1.63
2023-02-24T13:45:32.864Z,0.80
2023-02-24T13:50:55.308Z,1.80
2023-02-24T13:56:13.786Z,1.70
2023-02-24T14:01:17.920Z,1.80
2023-02-24T14:06:25.395Z,1.50
2023-02-24T14:11:33.348Z,0.70
2023-02-24T14:16:39.988Z,2.20
2023-02-24T14:21:55.689Z,1.40
2023-02-24T14:26:59.656Z,2.23
2023-02-24T14:32:02.763Z,2.93
2023-02-24T14:37:08.046Z,1.07
2023-02-24T14:42:14.939Z,1.90
2023-02-24T14:47:20.624Z,2.97
2023-02-24T14:52:36.135Z,1.83
2023-02-24T14:57:52.422Z,2.23
2023-02-24T15:03:22.274Z,1.80
2023-02-24T15:08:27.661Z,1.07
2023-02-24T15:13:45.725Z,1.97
2023-02-24T15:18:54.040Z,1.80
2023-02-24T15:24:12.657Z,3.37
2023-02-24T15:29:22.181Z,1.80
2023-02-24T15:34:28.840Z,0.43
2023-02-24T15:39:34.379Z,1.77
2023-02-24T15:44:37.302Z,1.67
2023-02-24T15:49:39.817Z,1.70
2023-02-24T15:54:43.407Z,2.13
2023-02-24T15:59:46.116Z,1.80
2023-02-24T16:04:49.462Z,4.10
2023-02-24T16:09:54.402Z,3.20
2023-02-24T16:15:02.903Z,3.13
2023-02-24T16:20:17.204Z,6.90
2023-02-24T16:25:19.725Z,8.37
2023-02-24T16:30:23.029Z,9.37
2023-02-24T16:35:27.096Z,9.07
2023-02-24T16:40:37.393Z,10.20
2023-02-24T16:45:41.355Z,11.10
2023-02-24T16:50:44.180Z,9.23
2023-02-24T16:55:47.489Z,9.03
2023-02-24T17:00:53.250Z,8.93
2023-02-24T17:05:55.952Z,8.10
2023-02-24T17:10:58.768Z,9.43
2023-02-24T17:16:01.494Z,8.87
2023-02-24T17:21:04.672Z,8.00
2023-02-24T17:26:07.729Z,8.17
2023-02-24T17:31:10.282Z,7.77
2023-02-24T17:36:12.772Z,8.33
2023-02-24T17:41:15.434Z,8.60
2023-02-24T17:46:18.654Z,7.00
2023-02-24T17:51:22.470Z,7.57
2023-02-24T17:56:25.036Z,8.00
2023-02-24T18:01:28.791Z,7.83
2023-02-24T18:06:31.357Z,5.87
2023-02-24T18:11:33.906Z,8.40
2023-02-24T18:16:36.468Z,8.37
2023-02-24T18:21:39.108Z,8.93
2023-02-24T18:26:42.400Z,7.80
2023-02-24T18:31:45.421Z,6.47
2023-02-24T18:36:48.165Z,5.63
2023-02-24T18:41:50.698Z,7.57
2023-02-24T18:46:53.247Z,7.17
2023-02-24T18:51:55.859Z,5.43
2023-02-24T18:56:58.514Z,4.87
2023-02-24T19:02:01.260Z,7.83
2023-02-24T19:07:04.258Z,6.33
2023-02-24T19:12:07.053Z,5.60
2023-02-24T19:17:09.603Z,5.47
2023-02-24T19:22:12.360Z,6.70
2023-02-24T19:27:15.078Z,7.07
2023-02-24T19:32:17.679Z,7.10
2023-02-24T19:37:20.294Z,6.60
2023-02-24T19:42:22.912Z,6.17
2023-02-24T19:47:25.461Z,5.60
2023-02-24T19:52:28.188Z,6.93
2023-02-24T19:57:32.236Z,6.40
2023-02-24T20:02:34.806Z,5.70
2023-02-24T20:07:37.777Z,5.87
2023-02-24T20:12:40.650Z,6.47
2023-02-24T20:17:43.184Z,4.83
2023-02-24T20:22:45.569Z,5.57
2023-02-24T20:27:48.060Z,6.23
2023-02-24T20:32:50.720Z,5.50
2023-02-24T20:37:53.413Z,5.77
2023-02-24T20:42:55.883Z,6.47
2023-02-24T20:47:58.397Z,6.17
2023-02-24T20:53:03.446Z,5.73
2023-02-24T20:58:06.315Z,5.10
2023-02-24T21:03:12.091Z,5.80
2023-02-24T21:08:14.661Z,5.13
2023-02-24T21:13:20.284Z,5.83
2023-02-24T21:18:23.510Z,4.20
2023-02-24T21:23:26.086Z,6.33
2023-02-24T21:28:28.770Z,5.07
2023-02-24T21:33:31.252Z,4.53
2023-02-24T21:38:35.317Z,4.20
2023-02-24T21:43:37.904Z,5.10
2023-02-24T21:48:41.870Z,4.73
2023-02-24T21:53:48.101Z,5.17
2023-02-24T21:59:02.311Z,5.30
2023-02-24T22:04:08.344Z,4.40
2023-02-24T22:09:11.897Z,4.73
2023-02-24T22:14:15.197Z,4.50
2023-02-24T22:19:19.550Z,4.70
2023-02-24T22:24:23.020Z,5.17
2023-02-24T22:29:25.504Z,5.03
2023-02-24T22:34:27.987Z,5.03
2023-02-24T22:39:30.476Z,5.30
2023-02-24T22:44:33.418Z,5.30
2023-02-24T22:49:35.965Z,4.07
2023-02-24T22:54:38.527Z,4.67
2023-02-24T22:59:41.190Z,3.80
2023-02-24T23:04:44.064Z,4.13
2023-02-24T23:09:53.085Z,3.97
2023-02-24T23:14:55.512Z,4.23
2023-02-24T23:19:58.677Z,5.30
2023-02-24T23:25:01.402Z,6.00
2023-02-24T23:30:06.577Z,5.50
2023-02-24T23:35:12.075Z,4.50
2023-02-24T23:40:17.620Z,4.77
2023-02-24T23:45:20.512Z,3.60
2023-02-24T23:50:23.510Z,4.60
2023-02-24T23:55:26.016Z,4.57
